createdAt,value
2022-09-15T00:00:52.013Z,12.30
2022-09-15T00:03:22.523Z,11.80
2022-09-15T00:05:51.230Z,11.70
2022-09-15T00:08:19.149Z,12.10
2022-09-15T00:10:52.021Z,11.60
2022-09-15T00:13:20.821Z,11.90
2022-09-15T00:15:49.103Z,11.70
2022-09-15T00:18:17.012Z,11.60
2022-09-15T00:20:47.176Z,11.60
2022-09-15T00:23:16.875Z,12.10
2022-09-15T00:25:46.063Z,11.60
2022-09-15T00:28:15.036Z,11.60
2022-09-15T00:30:44.368Z,12.30
2022-09-15T00:33:12.739Z,11.70
2022-09-15T00:35:40.741Z,11.60
2022-09-15T00:38:11.457Z,12.70
2022-09-15T00:40:45.920Z,11.80
2022-09-15T00:43:15.601Z,11.70
2022-09-15T00:45:44.612Z,12.00
2022-09-15T00:48:18.359Z,13.20
2022-09-15T00:50:50.600Z,13.60
2022-09-15T00:53:21.187Z,13.40
2022-09-15T00:55:51.537Z,13.40
2022-09-15T00:58:24.843Z,12.80
2022-09-15T01:00:56.501Z,11.80
2022-09-15T01:03:26.075Z,14.00
2022-09-15T01:05:57.313Z,13.20
2022-09-15T01:08:34.456Z,11.80
2022-09-15T01:11:02.966Z,12.30
2022-09-15T01:13:31.266Z,14.30
2022-09-15T01:16:08.935Z,14.50
2022-09-15T01:18:46.616Z,12.00
2022-09-15T01:21:25.390Z,11.90
2022-09-15T01:24:44.906Z,12.20
2022-09-15T01:27:51.048Z,12.20
2022-09-15T01:30:21.179Z,12.10
2022-09-15T01:33:03.914Z,12.10
2022-09-15T01:35:40.790Z,14.40
2022-09-15T01:38:15.590Z,12.70
2022-09-15T01:41:01.275Z,11.90
2022-09-15T01:43:31.279Z,12.10
2022-09-15T01:46:02.246Z,11.60
2022-09-15T01:48:32.126Z,11.80
2022-09-15T01:51:03.181Z,12.80
2022-09-15T01:53:31.336Z,11.80
2022-09-15T01:56:05.146Z,13.70
2022-09-15T01:58:33.582Z,12.00
2022-09-15T02:01:08.073Z,11.50
2022-09-15T02:03:44.624Z,13.80
2022-09-15T02:06:19.415Z,13.30
2022-09-15T02:08:53.779Z,13.30
2022-09-15T02:11:25.092Z,11.30
2022-09-15T02:14:00.674Z,12.10
2022-09-15T02:16:35.073Z,11.30
2022-09-15T02:19:10.776Z,12.50
2022-09-15T02:21:47.866Z,11.40
2022-09-15T02:24:19.093Z,12.10
2022-09-15T02:26:51.087Z,11.20
2022-09-15T02:29:22.455Z,11.10
2022-09-15T02:31:56.663Z,11.30
2022-09-15T02:34:28.034Z,11.90
2022-09-15T02:36:57.487Z,11.10
2022-09-15T02:39:32.278Z,11.00
2022-09-15T02:42:02.352Z,11.00
2022-09-15T02:44:31.344Z,12.30
2022-09-15T02:47:01.995Z,10.80
2022-09-15T02:49:29.911Z,10.80
2022-09-15T02:51:57.803Z,10.90
2022-09-15T02:54:25.637Z,10.70
2022-09-15T02:56:53.487Z,10.90
2022-09-15T02:59:21.376Z,10.60
2022-09-15T03:01:49.303Z,12.50
2022-09-15T03:04:18.710Z,10.50
2022-09-15T03:06:46.577Z,10.50
2022-09-15T03:09:14.888Z,10.50
2022-09-15T03:11:42.787Z,10.70
2022-09-15T03:14:10.640Z,10.60
2022-09-15T03:16:38.577Z,10.50
2022-09-15T03:19:06.524Z,10.60
2022-09-15T03:21:37.496Z,10.90
2022-09-15T03:24:05.667Z,10.80
2022-09-15T03:26:33.546Z,11.10
2022-09-15T03:29:01.452Z,11.30
2022-09-15T03:31:29.452Z,11.10
2022-09-15T03:33:58.131Z,11.20
2022-09-15T03:36:25.971Z,11.40
2022-09-15T03:38:57.722Z,11.00
2022-09-15T03:41:27.827Z,11.50
2022-09-15T03:43:56.853Z,11.20
2022-09-15T03:46:24.945Z,11.30
2022-09-15T03:48:52.833Z,11.40
2022-09-15T03:51:20.721Z,11.30
2022-09-15T03:53:48.627Z,11.30
2022-09-15T03:56:24.928Z,11.20
2022-09-15T03:58:53.943Z,11.40
2022-09-15T04:01:22.969Z,11.70
2022-09-15T04:03:51.909Z,11.20
2022-09-15T04:06:20.856Z,11.70
2022-09-15T04:08:48.794Z,11.40
2022-09-15T04:11:17.418Z,11.50
2022-09-15T04:13:46.978Z,11.40
2022-09-15T04:16:16.677Z,11.50
2022-09-15T04:18:44.904Z,11.70
2022-09-15T04:21:14.810Z,11.60
2022-09-15T04:23:43.451Z,11.50
2022-09-15T04:26:17.738Z,11.60
2022-09-15T04:28:47.115Z,13.40
2022-09-15T04:31:16.979Z,11.60
2022-09-15T04:33:45.804Z,11.70
2022-09-15T04:36:15.337Z,11.90
2022-09-15T04:38:43.761Z,11.80
2022-09-15T04:41:12.171Z,11.90
2022-09-15T04:43:40.616Z,14.20
2022-09-15T04:46:10.112Z,12.10
2022-09-15T04:48:38.443Z,13.50
2022-09-15T04:51:08.670Z,12.90
2022-09-15T04:53:37.112Z,13.40
2022-09-15T04:56:06.299Z,12.30
2022-09-15T04:58:37.623Z,12.30
2022-09-15T05:01:10.813Z,12.30
2022-09-15T05:03:39.147Z,12.30
2022-09-15T05:06:08.948Z,12.20
2022-09-15T05:08:37.298Z,12.30
2022-09-15T05:11:08.316Z,12.20
2022-09-15T05:13:37.083Z,12.90
2022-09-15T05:16:06.569Z,14.10
2022-09-15T05:18:36.171Z,12.50
2022-09-15T05:21:05.799Z,12.80
2022-09-15T05:23:35.569Z,12.50
2022-09-15T05:26:05.655Z,12.20
2022-09-15T05:28:34.801Z,13.20
2022-09-15T05:31:03.865Z,12.40
2022-09-15T05:33:31.748Z,12.30
2022-09-15T05:36:02.916Z,12.70
2022-09-15T05:38:32.465Z,12.60
2022-09-15T05:41:03.775Z,12.70
2022-09-15T05:43:32.806Z,12.60
2022-09-15T05:46:00.806Z,12.70
2022-09-15T05:48:29.429Z,14.10
2022-09-15T05:50:58.214Z,12.90
2022-09-15T05:53:28.007Z,12.60
2022-09-15T05:55:57.146Z,12.70
2022-09-15T05:58:25.214Z,12.80
2022-09-15T06:00:54.286Z,13.40
2022-09-15T06:03:27.450Z,12.90
2022-09-15T06:06:00.311Z,12.80
2022-09-15T06:08:33.325Z,13.10
2022-09-15T06:11:05.911Z,12.80
2022-09-15T06:13:34.031Z,13.10
2022-09-15T06:16:03.213Z,13.00
2022-09-15T06:18:31.140Z,15.00
2022-09-15T06:20:59.031Z,13.30
2022-09-15T06:23:27.077Z,13.20
2022-09-15T06:25:56.304Z,15.00
2022-09-15T06:28:24.695Z,13.20
2022-09-15T06:30:52.531Z,13.40
2022-09-15T06:33:20.354Z,13.20
2022-09-15T06:35:48.264Z,13.40
2022-09-15T06:38:16.108Z,13.30
2022-09-15T06:40:45.232Z,13.90
2022-09-15T06:43:14.484Z,14.10
2022-09-15T06:45:42.946Z,15.30
2022-09-15T06:48:23.849Z,14.90
2022-09-15T06:50:56.187Z,13.80
2022-09-15T06:53:24.092Z,13.80
2022-09-15T06:55:52.131Z,13.90
2022-09-15T06:58:21.383Z,13.80
2022-09-15T07:00:49.244Z,14.70
2022-09-15T07:03:17.178Z,13.70
2022-09-15T07:05:46.215Z,13.80
2022-09-15T07:08:14.303Z,14.30
2022-09-15T07:10:45.156Z,14.40
2022-09-15T07:13:13.208Z,15.60
2022-09-15T07:15:43.596Z,15.40
2022-09-15T07:18:11.447Z,15.00
2022-09-15T07:20:41.839Z,14.80
2022-09-15T07:23:09.825Z,14.60
2022-09-15T07:25:37.687Z,14.80
2022-09-15T07:28:05.658Z,14.80
2022-09-15T07:30:33.570Z,15.40
2022-09-15T07:33:02.821Z,15.40
2022-09-15T07:35:30.669Z,16.30
2022-09-15T07:37:58.615Z,14.80
2022-09-15T07:40:26.599Z,15.20
2022-09-15T07:42:54.543Z,14.30
2022-09-15T07:45:22.474Z,15.00
2022-09-15T07:47:50.383Z,14.60
2022-09-15T07:50:19.662Z,14.70
2022-09-15T07:52:47.510Z,15.70
2022-09-15T07:55:15.543Z,15.60
2022-09-15T07:57:44.034Z,15.10
2022-09-15T08:00:14.951Z,15.40
2022-09-15T08:02:43.116Z,15.40
2022-09-15T08:05:11.143Z,15.80
2022-09-15T08:07:40.591Z,15.80
2022-09-15T08:10:09.810Z,16.10
2022-09-15T08:12:37.764Z,15.90
2022-09-15T08:15:06.509Z,16.00
2022-09-15T08:17:35.663Z,16.00
2022-09-15T08:20:04.224Z,15.90
2022-09-15T08:22:32.209Z,16.10
2022-09-15T08:25:01.736Z,16.40
2022-09-15T08:27:29.756Z,16.50
2022-09-15T08:29:57.789Z,16.70
2022-09-15T08:32:25.710Z,16.20
2022-09-15T08:34:53.591Z,16.70
2022-09-15T08:37:21.560Z,16.50
2022-09-15T08:39:49.588Z,17.20
2022-09-15T08:42:20.964Z,16.80
2022-09-15T08:44:55.403Z,17.30
2022-09-15T08:47:27.094Z,17.40
2022-09-15T08:49:59.898Z,17.30
2022-09-15T08:52:31.965Z,17.40
2022-09-15T08:55:05.743Z,17.50
2022-09-15T08:57:34.995Z,17.80
2022-09-15T09:00:03.735Z,18.30
2022-09-15T09:03:05.072Z,18.30
2022-09-15T09:05:47.548Z,18.50
2022-09-15T09:08:52.010Z,18.60
2022-09-15T09:11:28.755Z,18.60
2022-09-15T09:14:08.549Z,18.50
2022-09-15T09:16:49.890Z,18.40
2022-09-15T09:19:40.743Z,18.30
2022-09-15T09:22:13.000Z,18.30
2022-09-15T09:24:45.996Z,18.40
2022-09-15T09:27:18.123Z,18.70
2022-09-15T09:29:50.186Z,19.00
2022-09-15T09:32:22.219Z,19.60
2022-09-15T09:35:00.368Z,20.00
2022-09-15T09:37:29.774Z,19.80
2022-09-15T09:39:57.813Z,19.60
2022-09-15T09:42:30.532Z,19.70
2022-09-15T09:44:59.857Z,19.50
2022-09-15T09:47:30.279Z,19.70
2022-09-15T09:49:59.780Z,19.40
2022-09-15T09:52:35.115Z,19.40
2022-09-15T09:55:04.541Z,19.40
2022-09-15T09:57:32.970Z,19.20
2022-09-15T10:00:02.816Z,19.20
2022-09-15T10:02:31.361Z,19.30
2022-09-15T10:05:19.355Z,19.40
2022-09-15T10:07:48.764Z,19.30
2022-09-15T10:10:21.969Z,19.30
2022-09-15T10:12:51.045Z,19.20
2022-09-15T10:15:25.635Z,19.20
2022-09-15T10:17:55.334Z,19.40
2022-09-15T10:20:32.356Z,19.80
2022-09-15T10:23:04.967Z,19.10
2022-09-15T10:25:57.628Z,20.10
2022-09-15T10:28:25.833Z,20.10
2022-09-15T10:31:06.884Z,20.20
2022-09-15T10:33:36.541Z,20.00
2022-09-15T10:36:08.263Z,20.00
2022-09-15T10:38:42.852Z,19.50
2022-09-15T10:41:21.731Z,19.50
2022-09-15T10:44:10.804Z,19.40
2022-09-15T10:46:49.567Z,19.70
2022-09-15T10:49:31.847Z,19.70
2022-09-15T10:52:10.839Z,19.70
2022-09-15T10:54:52.811Z,19.80
2022-09-15T10:57:32.764Z,19.70
2022-09-15T11:00:07.456Z,19.70
2022-09-15T11:02:53.199Z,19.70
2022-09-15T11:05:33.318Z,19.90
2022-09-15T11:08:19.541Z,19.60
2022-09-15T11:10:52.987Z,19.50
2022-09-15T11:13:26.564Z,19.30
2022-09-15T11:16:05.826Z,19.30
2022-09-15T11:18:52.990Z,19.10
2022-09-15T11:21:27.613Z,19.10
2022-09-15T11:24:07.135Z,18.80
2022-09-15T11:26:38.958Z,18.60
2022-09-15T11:29:15.074Z,18.50
2022-09-15T11:31:45.256Z,18.40
2022-09-15T11:34:20.826Z,18.30
2022-09-15T11:36:54.022Z,18.00
2022-09-15T11:39:25.343Z,17.80
2022-09-15T11:41:57.435Z,17.60
2022-09-15T11:44:31.000Z,17.40
2022-09-15T11:47:10.875Z,17.40
2022-09-15T11:49:46.185Z,17.70
2022-09-15T11:52:29.080Z,17.60
2022-09-15T11:55:03.879Z,17.90
2022-09-15T11:57:37.465Z,18.00
2022-09-15T12:00:11.341Z,18.60
2022-09-15T12:02:47.900Z,18.60
2022-09-15T12:05:22.140Z,19.10
2022-09-15T12:07:54.623Z,19.20
2022-09-15T12:10:26.339Z,19.50
2022-09-15T12:12:55.560Z,19.60
2022-09-15T12:15:27.378Z,19.50
2022-09-15T12:18:06.697Z,19.60
2022-09-15T12:20:54.523Z,19.40
2022-09-15T12:23:30.367Z,19.20
2022-09-15T12:26:14.238Z,18.90
2022-09-15T12:28:54.188Z,18.90
2022-09-15T12:31:34.394Z,18.80
2022-09-15T12:34:04.622Z,18.60
2022-09-15T12:36:39.828Z,18.40
2022-09-15T12:39:29.257Z,18.10
2022-09-15T12:42:20.376Z,18.10
2022-09-15T12:44:57.301Z,17.70
2022-09-15T12:47:32.995Z,17.60
2022-09-15T12:50:05.988Z,17.50
2022-09-15T12:52:43.941Z,17.50
2022-09-15T12:55:19.922Z,18.00
2022-09-15T12:57:55.669Z,17.80
2022-09-15T13:00:32.344Z,17.90
2022-09-15T13:03:00.555Z,18.10
2022-09-15T13:06:06.974Z,18.30
2022-09-15T13:08:48.298Z,18.30
2022-09-15T13:11:20.361Z,18.40
2022-09-15T13:13:53.505Z,18.50
2022-09-15T13:16:27.660Z,18.60
2022-09-15T13:19:08.151Z,18.50
2022-09-15T13:21:38.876Z,18.50
2022-09-15T13:24:17.066Z,18.50
2022-09-15T13:26:48.801Z,18.40
2022-09-15T13:29:18.238Z,18.60
2022-09-15T13:31:54.113Z,18.90
2022-09-15T13:35:06.843Z,18.80
2022-09-15T13:38:08.549Z,18.80
2022-09-15T13:41:24.790Z,18.90
2022-09-15T13:44:10.008Z,19.00
2022-09-15T13:46:50.107Z,19.20
2022-09-15T13:49:37.917Z,19.20
2022-09-15T13:52:19.043Z,19.40
2022-09-15T13:55:17.744Z,19.60
2022-09-15T14:00:48.312Z,19.80
2022-09-15T14:03:23.751Z,19.80
2022-09-15T14:05:51.771Z,19.80
2022-09-15T14:08:23.437Z,19.60
2022-09-15T14:10:54.435Z,19.30
2022-09-15T14:13:27.095Z,19.30
2022-09-15T14:16:00.552Z,19.30
2022-09-15T14:18:32.094Z,19.20
2022-09-15T14:21:01.962Z,19.20
2022-09-15T14:23:30.493Z,19.30
2022-09-15T14:26:01.072Z,19.10
2022-09-15T14:28:33.127Z,19.00
2022-09-15T14:31:01.832Z,19.20
2022-09-15T14:33:37.970Z,18.90
2022-09-15T14:36:14.637Z,18.80
2022-09-15T14:38:42.632Z,18.80
2022-09-15T14:41:20.321Z,19.20
2022-09-15T14:43:49.508Z,18.60
2022-09-15T14:46:19.291Z,18.50
2022-09-15T14:48:47.291Z,18.40
2022-09-15T14:51:22.239Z,18.40
2022-09-15T14:53:54.830Z,18.20
2022-09-15T14:56:25.970Z,18.10
2022-09-15T14:58:57.351Z,18.00
2022-09-15T15:01:32.401Z,17.90
2022-09-15T15:04:10.213Z,18.10
2022-09-15T15:06:40.933Z,17.90
2022-09-15T15:09:13.269Z,18.20
2022-09-15T15:11:42.282Z,18.10
2022-09-15T15:14:14.447Z,17.80
2022-09-15T15:16:52.590Z,17.80
2022-09-15T15:19:38.571Z,17.90
2022-09-15T15:22:17.675Z,17.70
2022-09-15T15:24:48.309Z,18.10
2022-09-15T15:27:43.262Z,17.70
2022-09-15T15:30:36.157Z,17.90
2022-09-15T15:33:06.150Z,17.70
2022-09-15T15:35:35.629Z,17.60
2022-09-15T15:38:13.403Z,17.60
2022-09-15T15:40:42.512Z,17.50
2022-09-15T15:43:22.369Z,18.00
2022-09-15T15:45:57.743Z,17.70
2022-09-15T15:48:26.543Z,17.50
2022-09-15T15:50:55.088Z,17.50
2022-09-15T15:53:23.091Z,17.30
2022-09-15T15:55:51.122Z,17.20
2022-09-15T15:58:19.200Z,17.20
2022-09-15T16:00:49.519Z,17.00
2022-09-15T16:03:20.622Z,17.00
2022-09-15T16:05:51.500Z,16.90
2022-09-15T16:08:25.678Z,17.30
2022-09-15T16:10:55.201Z,17.00
2022-09-15T16:13:24.290Z,17.10
2022-09-15T16:15:53.958Z,16.70
2022-09-15T16:18:23.251Z,17.50
2022-09-15T16:20:51.155Z,16.90
2022-09-15T16:23:20.982Z,16.70
2022-09-15T16:25:52.661Z,16.40
2022-09-15T16:28:20.583Z,17.00
2022-09-15T16:30:48.495Z,16.30
2022-09-15T16:33:17.523Z,16.30
2022-09-15T16:35:51.173Z,16.80
2022-09-15T16:38:20.138Z,16.30
2022-09-15T16:40:48.423Z,16.30
2022-09-15T16:43:18.027Z,16.60
2022-09-15T16:45:46.351Z,16.90
2022-09-15T16:48:14.435Z,15.70
2022-09-15T16:50:50.090Z,16.30
2022-09-15T16:53:26.630Z,15.60
2022-09-15T16:55:55.655Z,15.20
2022-09-15T16:58:23.949Z,15.10
2022-09-15T17:00:53.140Z,15.40
2022-09-15T17:03:23.752Z,15.80
2022-09-15T17:05:52.854Z,14.60
2022-09-15T17:08:23.426Z,14.80
2022-09-15T17:10:53.807Z,14.70
2022-09-15T17:13:26.321Z,14.60
2022-09-15T17:15:57.477Z,14.70
2022-09-15T17:18:25.837Z,14.00
2022-09-15T17:20:54.038Z,13.60
2022-09-15T17:23:24.293Z,13.90
2022-09-15T17:25:57.366Z,14.60
2022-09-15T17:28:27.158Z,15.30
2022-09-15T17:30:58.570Z,13.50
2022-09-15T17:33:27.508Z,14.70
2022-09-15T17:35:56.295Z,13.60
2022-09-15T17:38:25.007Z,13.70
2022-09-15T17:40:55.222Z,14.90
2022-09-15T17:43:25.168Z,14.00
2022-09-15T17:45:54.108Z,14.20
2022-09-15T17:48:22.527Z,13.40
2022-09-15T17:50:50.654Z,13.40
2022-09-15T17:53:21.169Z,15.20
2022-09-15T17:55:49.182Z,14.30
2022-09-15T17:58:18.935Z,13.50
2022-09-15T18:00:47.267Z,14.70
2022-09-15T18:03:22.000Z,14.60
2022-09-15T18:05:49.968Z,13.70
2022-09-15T18:08:18.395Z,14.20
2022-09-15T18:10:46.438Z,14.50
2022-09-15T18:13:16.494Z,13.50
2022-09-15T18:15:46.271Z,14.80
2022-09-15T18:18:16.064Z,13.70
2022-09-15T18:20:44.604Z,13.30
2022-09-15T18:23:17.583Z,13.10
2022-09-15T18:25:46.937Z,13.50
2022-09-15T18:28:15.675Z,13.40
2022-09-15T18:30:47.464Z,13.30
2022-09-15T18:33:16.972Z,13.40
2022-09-15T18:35:45.013Z,13.70
2022-09-15T18:38:13.236Z,13.20
2022-09-15T18:40:46.656Z,14.00
2022-09-15T18:43:14.695Z,13.10
2022-09-15T18:45:43.472Z,13.50
2022-09-15T18:48:13.617Z,14.50
2022-09-15T18:50:42.336Z,13.00
2022-09-15T18:53:10.421Z,13.70
2022-09-15T18:55:41.381Z,15.10
2022-09-15T18:58:09.371Z,12.90
2022-09-15T19:00:37.588Z,13.50
2022-09-15T19:03:09.276Z,12.70
2022-09-15T19:05:38.767Z,14.30
2022-09-15T19:08:08.271Z,12.70
2022-09-15T19:10:36.164Z,12.90
2022-09-15T19:13:04.877Z,12.90
2022-09-15T19:15:34.384Z,15.30
2022-09-15T19:18:02.503Z,12.80
2022-09-15T19:20:30.945Z,13.80
2022-09-15T19:23:00.518Z,12.60
2022-09-15T19:25:28.639Z,13.20
2022-09-15T19:27:56.959Z,14.40
2022-09-15T19:30:24.845Z,13.50
2022-09-15T19:32:52.966Z,12.90
2022-09-15T19:35:21.275Z,14.20
2022-09-15T19:37:49.159Z,14.70
2022-09-15T19:40:18.624Z,14.30
2022-09-15T19:42:46.820Z,13.70
2022-09-15T19:45:14.898Z,13.90
2022-09-15T19:47:43.258Z,12.70
2022-09-15T19:50:12.844Z,13.40
2022-09-15T19:52:41.227Z,12.80
2022-09-15T19:55:15.217Z,13.50
2022-09-15T19:57:44.678Z,12.70
2022-09-15T20:00:14.796Z,14.60
2022-09-15T20:02:43.019Z,12.70
2022-09-15T20:05:12.427Z,12.40
2022-09-15T20:07:40.317Z,13.90
2022-09-15T20:10:08.665Z,13.30
2022-09-15T20:12:36.600Z,12.50
2022-09-15T20:15:06.925Z,14.00
2022-09-15T20:17:35.022Z,12.50
2022-09-15T20:20:03.395Z,12.70
2022-09-15T20:22:31.318Z,12.50
2022-09-15T20:24:59.167Z,13.10
2022-09-15T20:27:27.003Z,12.80
2022-09-15T20:29:57.034Z,12.70
2022-09-15T20:32:29.170Z,12.50
2022-09-15T20:34:57.033Z,12.50
2022-09-15T20:37:24.890Z,12.50
2022-09-15T20:39:52.808Z,12.50
2022-09-15T20:42:20.675Z,13.30
2022-09-15T20:44:48.599Z,12.50
2022-09-15T20:47:16.571Z,12.50
2022-09-15T20:49:45.767Z,12.70
2022-09-15T20:52:13.746Z,12.50
2022-09-15T20:54:41.779Z,12.40
2022-09-15T20:57:10.287Z,12.50
2022-09-15T20:59:38.199Z,12.60
2022-09-15T21:02:06.735Z,13.30
2022-09-15T21:04:35.318Z,12.60
2022-09-15T21:07:04.544Z,12.90
2022-09-15T21:09:32.386Z,13.00
2022-09-15T21:12:00.833Z,12.50
2022-09-15T21:14:28.788Z,12.40
2022-09-15T21:16:56.678Z,12.30
2022-09-15T21:19:24.547Z,12.50
2022-09-15T21:21:54.403Z,12.40
2022-09-15T21:24:23.860Z,12.30
2022-09-15T21:27:09.825Z,12.30
2022-09-15T21:29:37.715Z,11.90
2022-09-15T21:32:05.839Z,12.20
2022-09-15T21:34:33.735Z,12.10
2022-09-15T21:37:01.565Z,12.70
2022-09-15T21:39:30.758Z,12.00
2022-09-15T21:41:58.615Z,11.80
2022-09-15T21:44:26.507Z,12.50
2022-09-15T21:46:54.723Z,11.80
2022-09-15T21:49:22.571Z,11.80
2022-09-15T21:51:50.476Z,11.90
2022-09-15T21:54:18.696Z,11.80
2022-09-15T21:56:47.911Z,11.70
2022-09-15T21:59:17.995Z,11.60
2022-09-15T22:01:45.934Z,11.60
2022-09-15T22:04:13.854Z,11.70
2022-09-15T22:06:43.119Z,11.40
2022-09-15T22:09:14.287Z,11.50
2022-09-15T22:11:42.797Z,12.10
2022-09-15T22:14:13.141Z,11.40
2022-09-15T22:16:42.649Z,11.30
2022-09-15T22:19:12.091Z,11.30
2022-09-15T22:21:41.811Z,11.20
2022-09-15T22:24:12.568Z,11.20
2022-09-15T22:26:42.108Z,11.40
2022-09-15T22:29:11.549Z,11.40
2022-09-15T22:31:40.810Z,11.10
2022-09-15T22:34:08.769Z,11.00
2022-09-15T22:36:36.623Z,11.30
2022-09-15T22:39:05.863Z,11.10
2022-09-15T22:41:35.688Z,11.10
2022-09-15T22:44:04.611Z,11.10
2022-09-15T22:46:33.841Z,11.00
2022-09-15T22:49:01.795Z,11.10
2022-09-15T22:51:30.087Z,11.20
2022-09-15T22:53:58.452Z,10.90
2022-09-15T22:56:27.937Z,10.90
2022-09-15T22:58:57.402Z,10.90
2022-09-15T23:01:27.725Z,11.40
2022-09-15T23:03:58.718Z,11.40
2022-09-15T23:06:28.360Z,10.90
2022-09-15T23:08:58.359Z,10.80
2022-09-15T23:11:27.383Z,10.90
2022-09-15T23:13:56.157Z,10.70
2022-09-15T23:16:25.198Z,10.60
2022-09-15T23:18:53.379Z,10.80
2022-09-15T23:21:22.683Z,10.90
2022-09-15T23:23:50.921Z,11.30
2022-09-15T23:26:21.229Z,10.80
2022-09-15T23:28:49.512Z,10.70
2022-09-15T23:31:18.361Z,10.70
2022-09-15T23:33:46.474Z,10.80
2022-09-15T23:36:16.177Z,11.10
2022-09-15T23:38:46.503Z,10.70
2022-09-15T23:41:15.923Z,10.80
2022-09-15T23:43:43.893Z,10.70
2022-09-15T23:46:11.882Z,10.70
2022-09-15T23:48:39.924Z,10.80
2022-09-15T23:51:07.943Z,11.00
2022-09-15T23:53:36.385Z,10.80
2022-09-15T23:56:06.000Z,11.10
2022-09-15T23:58:34.067Z,10.60
